Latest Weather Observations for Horn Island

IDQ60801

Issued at 9:02 pm EST Monday 2 March 2015 (issued every 30 minutes, with the page automatically refreshed every 10 minutes)

About weather observations | Map of weather stations | Latest weather observations for QLD | Other Formats
Station Details ID: 027058 Name: HORN ISLAND Lat: -10.58 Lon: 142.29 Height: 4.0 m
Data from the previous 72 hours. | See also: Recent months at Horn Island
Date/Time
EST
Temp
°C
App
Temp
°C
Dew
Point
Rel
Hum
%
Delta-T
°C
Wind Press
QNH
hPa
Press
MSL
hPa
Rain
since 9 am
mm
Dir
 
Spd
km/h
Gust
km/h
Spd
kts
Gust
kts
02/09:00pm 27.0 32.8 25.2 90 1.3 S 4 7 2 4 1007.2 1007.2 0.0
02/08:30pm 26.9 33.4 25.1 90 1.3 CALM 0 0 0 0 1007.0 - 0.0
02/08:00pm 26.9 32.5 24.9 89 1.4 S 4 6 2 3 1006.5 - 0.0
02/07:30pm 26.6 32.7 24.4 88 1.5 CALM 0 9 0 5 1006.2 - 0.0
02/07:00pm 26.7 31.6 24.4 87 1.6 WSW 6 7 3 4 1005.7 - 0.0
02/06:30pm 26.8 31.4 24.1 85 1.9 W 7 11 4 6 1005.6 - 0.0
02/06:00pm 26.3 29.1 23.6 85 1.9 W 15 20 8 11 1005.6 1005.6 0.0
02/05:30pm 28.6 32.2 24.4 78 2.9 WNW 13 20 7 11 1005.4 - 0.0
02/05:00pm 29.2 32.4 24.3 75 3.4 NW 15 22 8 12 1005.2 - 0.0
02/04:30pm 29.0 31.8 25.0 79 2.8 NW 19 24 10 13 1005.0 - 0.0
02/04:00pm 28.7 31.2 24.5 78 2.9 NNW 19 24 10 13 1005.1 - 0.0
02/03:30pm 28.9 32.8 24.9 79 2.8 NNW 13 20 7 11 1005.2 - 0.0
02/03:00pm 28.5 32.0 24.9 81 2.5 NNW 15 20 8 11 1005.4 1005.4 0.0
02/02:30pm 27.5 30.8 25.1 87 1.7 NNW 17 24 9 13 1005.9 - 0.0
02/02:24pm 27.0 30.1 24.8 88 1.5 NNW 17 22 9 12 1006.0 - 0.0
02/02:07pm 26.9 30.2 25.1 90 1.3 NNW 17 24 9 13 1006.4 - 0.0
02/02:00pm 26.9 31.2 24.9 89 1.4 NW 11 20 6 11 1006.4 - 0.0
02/01:57pm 26.8 30.9 24.6 88 1.5 WNW 11 19 6 10 1006.4 - 0.0
02/01:41pm 26.5 28.9 23.6 84 2.0 NW 17 28 9 15 1006.6 - 0.0
02/01:30pm 27.4 29.2 23.2 78 2.9 NW 19 26 10 14 1006.8 - 0.0
02/01:00pm 29.3 31.8 24.8 77 3.1 NNW 20 28 11 15 1007.0 - 0.0
02/12:30pm 29.5 31.9 24.6 75 3.4 NNW 20 32 11 17 1007.5 - 0.0
02/12:00pm 29.6 32.9 25.1 77 3.2 NNW 17 26 9 14 1008.1 1008.1 0.0
02/11:30am 29.3 31.5 24.2 74 3.5 NNW 20 28 11 15 1008.3 - 0.0
02/11:00am 28.0 30.9 24.4 81 2.5 NNW 17 28 9 15 1008.6 - 0.0
02/10:30am 29.2 32.5 24.5 76 3.3 NNW 15 20 8 11 1008.8 - 0.0
02/10:00am 28.7 32.1 24.7 79 2.8 N 15 20 8 11 1009.1 - 0.0
02/09:30am 28.4 31.5 24.8 81 2.5 N 17 24 9 13 1008.8 - 0.0
02/09:00am 28.1 30.8 24.7 82 2.4 N 19 26 10 14 1008.7 1008.7 7.2
02/08:30am 28.1 30.8 24.7 82 2.4 N 19 24 10 13 1008.2 - 7.2
02/08:00am 27.8 30.3 24.4 82 2.4 N 19 24 10 13 1007.9 - 7.2
02/07:30am 27.4 30.9 24.8 86 1.8 N 15 20 8 11 1007.8 - 7.2
02/07:00am 26.9 30.9 25.1 90 1.3 N 13 17 7 9 1007.6 - 7.2
02/06:30am 26.2 30.2 24.4 90 1.2 NW 11 15 6 8 1007.5 - 7.2
02/06:00am 26.0 29.3 23.9 88 1.4 NNW 13 17 7 9 1007.1 1007.1 7.2
02/05:30am 25.8 30.3 24.6 93 0.8 NW 9 11 5 6 1006.8 - 7.0
02/05:03am 25.7 30.5 24.5 93 0.8 NW 7 11 4 6 1006.6 - 7.0
02/05:00am 25.8 30.7 24.6 93 0.8 NW 7 11 4 6 1006.6 - 7.0
02/04:39am 25.7 29.6 23.6 88 1.4 WSW 9 24 5 13 1006.8 - 4.4
02/04:30am 26.5 31.4 24.3 88 1.5 W 6 7 3 4 1006.8 - 2.0
02/04:00am 26.7 31.0 24.2 86 1.7 WNW 9 17 5 9 1006.6 - 2.0
02/03:30am 26.7 31.6 24.7 89 1.4 W 7 9 4 5 1006.7 - 2.0
02/03:00am 26.9 31.3 24.5 87 1.7 WNW 9 13 5 7 1006.8 1006.8 2.0
02/02:30am 26.4 31.3 24.4 89 1.4 WSW 6 7 3 4 1007.1 - 2.0
02/02:00am 26.6 31.4 24.4 88 1.5 W 7 11 4 6 1007.2 - 2.0
02/01:30am 26.8 30.6 24.1 85 1.9 WNW 11 19 6 10 1007.7 - 2.0
02/01:00am 26.8 28.8 23.9 84 2.0 W 20 32 11 17 1007.9 - 2.0
02/12:30am 27.9 30.7 24.3 81 2.5 NW 17 26 9 14 1008.0 - 2.0
02/12:00am 27.5 31.1 24.3 83 2.2 NW 13 20 7 11 1007.9 1007.9 2.0
 
Date/Time
EST
Temp
°C
App
Temp
°C
Dew
Point
Rel
Hum
%
Delta-T
°C
Wind Press
QNH
hPa
Press
MSL
hPa
Rain
since 9 am
mm
Dir
 
Spd
km/h
Gust
km/h
Spd
kts
Gust
kts
01/11:30pm 27.9 30.3 24.3 81 2.5 NW 19 26 10 14 1007.9 - 2.0
01/11:00pm 27.9 30.7 24.3 81 2.5 NW 17 24 9 13 1008.1 - 2.0
01/10:30pm 28.0 30.6 24.0 79 2.8 NW 17 26 9 14 1008.0 - 2.0
01/10:00pm 27.8 32.4 24.8 84 2.1 WNW 9 15 5 8 1007.8 - 2.0
01/09:30pm 27.5 32.1 24.7 85 1.9 NW 9 17 5 9 1007.6 - 2.0
01/09:00pm 27.3 32.2 24.6 85 1.9 WNW 7 9 4 5 1007.4 1007.4 2.0
01/08:30pm 27.4 31.7 24.3 83 2.1 WNW 9 13 5 7 1007.1 - 2.0
01/08:00pm 27.5 31.6 23.9 81 2.5 WNW 9 11 5 6 1006.8 - 2.0
01/07:30pm 27.9 31.5 23.7 78 2.9 WNW 11 19 6 10 1006.4 - 2.0
01/07:00pm 28.1 32.4 24.3 80 2.6 WNW 9 15 5 8 1006.1 - 2.0
01/06:30pm 28.3 32.1 24.1 78 2.9 WNW 11 17 6 9 1005.8 - 2.0
01/06:00pm 28.5 31.4 23.9 76 3.2 WNW 15 22 8 12 1005.5 1005.5 2.0
01/05:30pm 28.7 32.3 23.8 75 3.4 WNW 11 19 6 10 1005.3 - 2.0
01/05:00pm 28.9 31.9 24.0 75 3.4 NW 15 20 8 11 1005.1 - 2.0
01/04:30pm 29.5 32.1 24.6 75 3.4 NNW 19 26 10 14 1004.9 - 2.0
01/04:00pm 30.1 32.6 24.5 72 3.9 NW 19 28 10 15 1004.9 - 2.0
01/03:30pm 29.3 31.6 24.4 75 3.4 NNW 20 28 11 15 1005.0 - 2.0
01/03:00pm 28.9 31.6 24.7 78 2.9 NW 19 26 10 14 1005.2 1005.2 2.0
01/02:30pm 28.9 31.4 24.5 77 3.1 NNW 19 28 10 15 1005.9 - 2.0
01/02:00pm 28.8 31.1 24.4 77 3.1 NNW 20 30 11 16 1006.3 - 2.0
01/01:30pm 29.0 30.9 25.0 79 2.8 NNW 24 33 13 18 1006.6 - 2.0
01/01:00pm 28.9 31.4 24.7 78 2.9 NNW 20 30 11 16 1006.9 - 2.0
01/12:30pm 27.7 29.5 24.3 82 2.4 NNW 22 30 12 16 1007.4 - 2.0
01/12:00pm 29.1 31.4 25.1 79 2.8 NNW 22 35 12 19 1007.8 1007.8 2.0
01/11:30am 29.0 31.8 25.2 80 2.7 NNW 20 28 11 15 1008.1 - 2.0
01/11:00am 28.7 31.7 25.3 82 2.4 NNW 19 26 10 14 1008.3 - 2.0
01/10:30am 27.2 30.2 24.6 86 1.8 NNW 17 26 9 14 1008.6 - 2.0
01/10:00am 26.5 29.3 24.9 91 1.1 NW 19 26 10 14 1008.9 - 2.0
01/09:30am 25.7 28.4 24.7 94 0.7 NW 19 32 10 17 1009.2 - 1.4
01/09:24am 25.7 28.9 25.0 96 0.5 NW 17 28 9 15 1009.2 - 1.2
01/09:00am 25.3 27.7 24.6 96 0.5 NW 20 30 11 16 1009.2 1009.2 39.4
01/08:35am 24.8 27.3 24.5 98 0.2 NW 19 32 10 17 1009.0 - 38.2
01/08:30am 24.8 27.8 24.6 99 0.1 NW 17 24 9 13 1009.0 - 37.8
01/08:25am 24.7 27.2 24.5 99 0.1 NW 19 24 10 13 1009.0 - 37.8
01/08:00am 23.8 25.6 23.3 97 0.3 W 19 32 10 17 1008.7 - 35.0
01/07:30am 24.7 27.1 24.2 97 0.3 WNW 19 28 10 15 1008.2 - 19.2
01/07:22am 24.6 26.3 23.4 93 0.8 W 20 33 11 18 1008.1 - 11.8
01/07:00am 26.7 29.2 24.5 88 1.5 N 19 26 10 14 1007.6 - 10.8
01/06:59am 26.7 29.0 24.5 88 1.5 N 20 26 11 14 1007.6 - 10.8
01/06:30am 26.4 29.0 24.6 90 1.2 N 19 28 10 15 1006.9 - 10.8
01/06:22am 26.5 29.7 24.9 91 1.1 NNW 17 24 9 13 1006.9 - 10.8
01/06:07am 26.4 28.9 24.4 89 1.4 NNW 19 26 10 14 1006.6 - 10.8
01/06:00am 26.4 28.8 24.6 90 1.3 NNW 20 28 11 15 1006.5 1006.5 10.8
01/05:37am 26.3 28.7 24.3 89 1.4 NNW 19 26 10 14 1006.3 - 10.8
01/05:32am 26.2 28.6 24.2 89 1.4 NNW 19 24 10 13 1006.3 - 10.8
01/05:30am 26.2 28.6 24.2 89 1.4 NNW 19 24 10 13 1006.2 - 10.8
01/05:15am 26.2 29.2 24.6 91 1.1 NNW 17 24 9 13 1006.0 - 10.8
01/05:00am 25.8 29.3 24.8 94 0.7 NW 15 22 8 12 1006.0 - 10.8
01/04:30am 25.3 28.4 24.1 93 0.8 NW 15 22 8 12 1006.0 - 10.8
01/04:20am 25.3 28.9 24.4 95 0.6 NW 13 20 7 11 1006.1 - 10.8
01/04:06am 25.2 27.9 24.2 94 0.7 WNW 17 32 9 17 1006.0 - 10.8
01/04:00am 25.6 29.8 24.7 95 0.6 WNW 11 19 6 10 1006.0 - 10.4
01/03:30am 25.3 30.2 24.6 96 0.5 WNW 7 11 4 6 1006.0 - 10.4
01/03:00am 25.1 29.9 24.4 96 0.5 W 7 9 4 5 1006.2 1006.2 10.4
01/02:30am 25.0 29.3 24.3 96 0.5 W 9 13 5 7 1006.5 - 10.2
01/02:00am 24.6 30.4 23.9 96 0.5 CALM 0 0 0 0 1006.9 - 9.8
01/01:43am 24.5 29.1 23.8 96 0.5 WNW 6 9 3 5 1007.1 - 9.8
01/01:30am 24.5 28.4 23.6 95 0.6 W 9 19 5 10 1007.4 - 9.6
01/01:00am 25.5 27.7 24.3 93 0.8 WNW 20 35 11 19 1007.4 - 1.2
01/12:56am 25.7 27.4 24.1 91 1.1 WNW 22 37 12 20 1007.4 - 1.0
01/12:30am 27.3 30.7 24.6 85 1.9 NNW 15 20 8 11 1007.6 - 0.2
01/12:00am 27.5 30.7 24.3 83 2.2 NNW 15 24 8 13 1008.0 1008.0 0.2
 
Date/Time
EST
Temp
°C
App
Temp
°C
Dew
Point
Rel
Hum
%
Delta-T
°C
Wind Press
QNH
hPa
Press
MSL
hPa
Rain
since 9 am
mm
Dir
 
Spd
km/h
Gust
km/h
Spd
kts
Gust
kts
28/11:30pm 27.6 30.3 24.2 82 2.4 NW 17 24 9 13 1008.3 - 0.2
28/11:00pm 27.5 30.2 24.1 82 2.3 NNW 17 26 9 14 1008.4 - 0.2
28/10:30pm 27.4 30.7 23.8 81 2.5 NW 13 20 7 11 1008.4 - 0.2
28/10:00pm 27.1 30.7 23.8 82 2.3 WNW 11 17 6 9 1008.3 - 0.2
28/09:30pm 27.0 30.1 23.5 81 2.4 WNW 13 19 7 10 1007.9 - 0.2
28/09:00pm 26.9 30.3 23.4 81 2.4 WNW 11 15 6 8 1007.6 1007.6 0.2
28/08:30pm 26.9 30.4 23.6 82 2.3 W 11 17 6 9 1007.1 - 0.2
28/08:00pm 26.6 29.9 23.9 85 1.9 W 13 24 7 13 1006.9 - 0.2
28/07:30pm 26.8 31.0 24.1 85 1.9 WNW 9 15 5 8 1006.8 - 0.2
28/07:00pm 26.9 29.5 24.0 84 2.0 WNW 17 28 9 15 1006.4 - 0.2
28/06:30pm 27.7 30.6 23.9 80 2.6 WNW 15 22 8 12 1005.9 - 0.2
28/06:00pm 27.9 30.5 23.9 79 2.8 WNW 17 26 9 14 1005.6 1005.6 0.2
28/05:30pm 28.8 31.5 24.1 76 3.3 WNW 17 26 9 14 1005.3 - 0.2
28/05:00pm 28.3 30.9 23.9 77 3.0 WNW 17 24 9 13 1005.4 - 0.2
28/04:30pm 28.9 31.5 24.0 75 3.4 NW 17 26 9 14 1005.4 - 0.2
28/04:00pm 28.1 30.0 23.5 76 3.2 WNW 19 26 10 14 1005.3 - 0.2
28/03:30pm 27.8 29.9 23.8 79 2.8 WNW 19 30 10 16 1005.4 - 0.2
28/03:00pm 27.6 29.6 23.6 79 2.8 WNW 19 32 10 17 1005.9 1005.9 0.2
28/02:30pm 28.3 30.2 23.4 75 3.4 WNW 19 30 10 16 1006.1 - 0.2
28/02:00pm 28.8 31.9 24.8 79 2.8 NW 17 24 9 13 1006.2 - 0.2
28/01:54pm 29.2 32.0 25.0 78 2.9 NW 19 26 10 14 1006.3 - 0.2
28/01:30pm 28.4 30.6 24.2 78 2.9 NW 20 30 11 16 1006.8 - 0.2
28/01:13pm 28.7 31.4 25.1 81 2.5 NW 20 28 11 15 1007.0 - 0.2
28/01:00pm 28.0 30.0 24.6 82 2.4 NW 22 32 12 17 1007.1 - 0.2
28/12:30pm 27.8 29.6 24.8 84 2.1 NW 24 37 13 20 1008.1 - 0.2
28/12:00pm 28.7 31.5 24.9 80 2.7 NNW 19 28 10 15 1008.6 1008.6 0.2
28/11:40am 27.5 29.3 24.3 83 2.2 NNW 22 33 12 18 1008.7 - 0.2
28/11:30am 27.4 29.5 24.7 85 1.9 NNW 22 32 12 17 1008.8 - 0.2
28/11:09am 27.2 29.6 24.6 86 1.8 N 20 26 11 14 1008.9 - 0.0
28/11:00am 28.0 31.0 24.6 82 2.4 NW 17 26 9 14 1008.9 - 0.0
28/10:58am 28.5 31.8 25.1 82 2.4 NW 17 24 9 13 1008.9 - 0.0
28/10:30am 28.0 31.7 25.2 85 2.0 NW 15 20 8 11 1009.0 - 0.0
28/10:20am 27.8 31.8 25.6 88 1.5 NW 15 20 8 11 1009.2 - 0.0
28/10:00am 27.4 31.5 25.2 88 1.5 NW 13 22 7 12 1009.3 - 0.0
28/09:30am 26.5 30.1 24.3 88 1.5 NW 13 20 7 11 1009.3 - 0.0
28/09:00am 26.0 29.7 24.6 92 1.0 WNW 13 20 7 11 1009.3 1009.3 47.6
28/08:56am 26.0 29.7 24.6 92 1.0 WNW 13 20 7 11 1009.2 - 47.6
28/08:37am 25.9 29.5 25.0 95 0.6 NW 15 22 8 12 1008.9 - 47.6
28/08:30am 25.6 29.0 24.7 95 0.6 NW 15 24 8 13 1008.9 - 47.6
28/08:04am 24.8 27.7 23.9 95 0.6 NW 15 22 8 12 1008.9 - 47.4
28/08:00am 24.7 27.2 23.8 95 0.6 NW 17 32 9 17 1008.9 - 47.4
28/07:58am 24.7 26.9 24.0 96 0.5 NW 19 32 10 17 1008.9 - 47.4
28/07:51am 24.7 26.6 23.8 95 0.6 NW 20 32 11 17 1008.9 - 47.2
28/07:47am 24.8 26.4 23.9 95 0.6 NW 22 41 12 22 1008.8 - 47.2
28/07:40am 25.0 25.5 24.0 94 0.7 NW 28 41 15 22 1008.7 - 47.0
28/07:37am 25.3 25.5 24.1 93 0.8 NW 30 44 16 24 1008.6 - 46.4
28/07:30am 25.8 26.2 23.8 89 1.4 NNW 28 44 15 24 1008.3 - 46.4
28/07:25am 26.0 26.9 23.9 88 1.4 NNW 26 35 14 19 1008.2 - 46.2
28/07:03am 26.3 29.3 25.6 96 0.5 NNW 20 30 11 16 1007.9 - 46.2
28/07:00am 26.1 29.2 25.4 96 0.5 NNW 19 26 10 14 1007.9 - 46.2
28/06:56am 26.0 29.4 25.3 96 0.5 NNW 17 24 9 13 1007.9 - 46.2
28/06:42am 25.4 29.7 24.9 97 0.3 N 11 19 6 10 1007.7 - 46.2
28/06:30am 25.1 29.3 24.8 98 0.2 NNW 11 17 6 9 1007.6 - 46.2
28/06:14am 24.9 30.4 24.7 99 0.1 NW 4 9 2 5 1007.5 - 46.2
28/06:01am 24.6 30.3 24.4 99 0.1 NNW 2 7 1 4 1007.4 - 46.0
28/06:00am 24.6 30.3 24.4 99 0.1 NNW 2 7 1 4 1007.4 1007.4 46.0
28/05:41am 24.1 25.5 23.6 97 0.3 NNW 22 44 12 24 1007.5 - 45.2
28/05:35am 24.2 23.9 23.3 95 0.6 NW 30 44 16 24 1007.5 - 37.2
28/05:34am 24.4 25.8 23.5 95 0.6 W 22 44 12 24 1007.5 - 35.0
28/05:30am 24.9 29.4 24.0 95 0.6 S 7 11 4 6 1007.2 - 32.4
28/05:07am 25.4 29.7 24.9 97 0.3 NNW 11 22 6 12 1007.2 - 32.0
28/05:00am 25.3 28.1 25.0 98 0.2 N 19 24 10 13 1007.0 - 32.0
28/04:35am 25.2 28.0 24.9 98 0.2 N 19 28 10 15 1006.8 - 26.0
28/04:34am 25.2 28.0 24.9 98 0.2 N 19 28 10 15 1006.9 - 25.8
28/04:30am 25.1 27.7 24.6 97 0.3 N 19 28 10 15 1006.8 - 25.2
28/04:00am 24.9 26.6 24.0 95 0.6 N 22 32 12 17 1006.8 - 24.6
28/03:30am 25.3 27.7 24.3 94 0.7 NW 19 24 10 13 1007.0 - 24.4
28/03:00am 25.0 31.3 24.7 98 0.2 CALM 0 0 0 0 1006.7 1006.7 24.4
28/02:30am 24.9 29.7 24.4 97 0.3 W 7 7 4 4 1007.0 - 24.4
28/02:00am 24.8 29.1 24.3 97 0.3 WNW 9 11 5 6 1007.2 - 24.4
28/01:30am 24.3 28.1 23.4 95 0.6 WNW 9 13 5 7 1007.3 - 24.2
28/01:25am 24.2 27.6 23.3 95 0.6 WNW 11 15 6 8 1007.4 - 24.2
28/01:00am 24.6 26.1 22.7 89 1.3 W 19 37 10 20 1008.1 - 20.4
28/12:30am 26.0 30.5 24.6 92 1.0 WNW 9 11 5 6 1008.2 - 18.4
28/12:00am 25.7 30.1 24.5 93 0.8 WNW 9 11 5 6 1008.5 1008.5 18.4
 
Date/Time
EST
Temp
°C
App
Temp
°C
Dew
Point
Rel
Hum
%
Delta-T
°C
Wind Press
QNH
hPa
Press
MSL
hPa
Rain
since 9 am
mm
Dir
 
Spd
km/h
Gust
km/h
Spd
kts
Gust
kts
27/11:30pm 25.8 30.6 24.2 91 1.1 W 6 7 3 4 1008.7 - 18.2
27/11:00pm 25.9 30.8 24.3 91 1.1 W 6 7 3 4 1009.2 - 18.2
27/10:30pm 25.9 30.4 23.9 89 1.4 WNW 7 11 4 6 1009.3 - 18.2
27/10:00pm 25.5 29.6 23.9 91 1.1 WNW 9 11 5 6 1008.9 - 18.2
27/09:30pm 25.7 29.8 23.9 90 1.2 W 9 13 5 7 1008.7 - 18.2

Other Formats:

Comma delimited format used in spreadsheet applications
http://www.bom.gov.au/fwo/IDQ60801/IDQ60801.94174.axf

JavaScript Object Notation format (JSON) in row-major order
http://www.bom.gov.au/fwo/IDQ60801/IDQ60801.94174.json